createdAt,value
2022-12-05T00:01:18.276Z,101771.31
2022-12-05T00:03:45.688Z,101771.56
2022-12-05T00:06:12.195Z,101766.97
2022-12-05T00:08:39.035Z,101763.13
2022-12-05T00:11:14.128Z,101770.22
2022-12-05T00:13:41.143Z,101764.09
2022-12-05T00:16:09.606Z,101767.78
2022-12-05T00:18:36.205Z,101773.53
2022-12-05T00:21:02.976Z,101757.63
2022-12-05T00:23:29.823Z,101757.72
2022-12-05T00:25:56.663Z,101750.91
2022-12-05T00:28:23.143Z,101749.09
2022-12-05T00:30:49.554Z,101752.63
2022-12-05T00:33:15.971Z,101747.06
2022-12-05T00:35:42.416Z,101749.66
2022-12-05T00:38:08.857Z,101752.97
2022-12-05T00:40:36.553Z,101752.97
2022-12-05T00:43:02.997Z,101748.00
2022-12-05T00:45:29.412Z,101748.25
2022-12-05T00:47:55.906Z,101741.28
2022-12-05T00:50:22.291Z,101748.41
2022-12-05T00:52:48.715Z,101740.72
2022-12-05T00:55:15.199Z,101734.28
2022-12-05T00:57:41.573Z,101743.06
2022-12-05T01:00:08.611Z,101748.00
2022-12-05T01:02:35.024Z,101741.47
2022-12-05T01:05:01.518Z,101736.72
2022-12-05T01:07:28.011Z,101739.22
2022-12-05T01:09:54.637Z,101736.00
2022-12-05T01:12:21.335Z,101737.41
2022-12-05T01:14:47.753Z,101737.31
2022-12-05T01:17:14.230Z,101732.44
2022-12-05T01:19:40.685Z,101734.97
2022-12-05T01:22:07.105Z,101733.25
2022-12-05T01:24:33.762Z,101740.00
2022-12-05T01:27:00.152Z,101743.81
2022-12-05T01:29:27.143Z,101741.13
2022-12-05T01:31:54.101Z,101737.59
2022-12-05T01:34:21.354Z,101739.50
2022-12-05T01:36:48.388Z,101748.53
2022-12-05T01:39:15.511Z,101738.06
2022-12-05T01:41:45.094Z,101729.59
2022-12-05T01:44:11.602Z,101752.63
2022-12-05T01:46:46.150Z,101749.97
2022-12-05T01:49:18.887Z,101746.59
2022-12-05T01:51:47.794Z,101743.44
2022-12-05T01:54:15.606Z,101750.91
2022-12-05T01:56:45.403Z,101748.72
2022-12-05T01:59:12.880Z,101737.50
2022-12-05T02:01:39.593Z,101742.28
2022-12-05T02:04:06.587Z,101740.72
2022-12-05T02:06:33.339Z,101748.53
2022-12-05T02:08:59.926Z,101751.94
2022-12-05T02:11:28.462Z,101745.94
2022-12-05T02:14:23.048Z,101737.72
2022-12-05T02:17:23.281Z,101742.94
2022-12-05T02:19:49.629Z,101738.19
2022-12-05T02:22:34.642Z,101739.28
2022-12-05T02:25:13.179Z,101733.53
2022-12-05T02:27:56.204Z,101726.13
2022-12-05T02:30:24.197Z,101727.28
2022-12-05T02:32:53.538Z,101717.94
2022-12-05T02:35:49.210Z,101717.66
2022-12-05T02:38:24.379Z,101715.22
2022-12-05T02:40:50.724Z,101715.97
2022-12-05T02:43:22.109Z,101715.63
2022-12-05T02:45:52.555Z,101708.09
2022-12-05T02:48:20.178Z,101707.53
2022-12-05T02:50:48.417Z,101708.38
2022-12-05T02:53:16.374Z,101709.53
2022-12-05T02:55:43.806Z,101704.81
2022-12-05T02:58:17.118Z,101700.28
2022-12-05T03:00:45.040Z,101706.41
2022-12-05T03:03:18.391Z,101711.63
2022-12-05T03:06:03.665Z,101712.16
2022-12-05T03:08:35.369Z,101723.31
2022-12-05T03:11:02.559Z,101709.91
2022-12-05T03:13:35.266Z,101705.75
2022-12-05T03:16:06.898Z,101709.16
2022-12-05T03:18:37.806Z,101709.34
2022-12-05T03:21:08.880Z,101710.88
2022-12-05T03:23:38.767Z,101703.50
2022-12-05T03:26:14.363Z,101710.31
2022-12-05T03:28:43.721Z,101713.50
2022-12-05T03:31:14.323Z,101708.59
2022-12-05T03:33:43.177Z,101705.28
2022-12-05T03:36:15.867Z,101706.13
2022-12-05T03:39:01.772Z,101708.94
2022-12-05T03:41:38.303Z,101709.53
2022-12-05T03:44:09.754Z,101708.34
2022-12-05T03:46:41.037Z,101720.28
2022-12-05T03:49:13.292Z,101704.78
2022-12-05T03:51:49.360Z,101708.34
2022-12-05T03:54:20.193Z,101713.03
2022-12-05T03:56:50.439Z,101701.09
2022-12-05T03:59:50.856Z,101709.22
2022-12-05T04:02:54.669Z,101693.81
2022-12-05T04:05:25.019Z,101703.06
2022-12-05T04:07:59.198Z,101705.78
2022-12-05T04:10:29.627Z,101697.34
2022-12-05T04:13:17.613Z,101700.81
2022-12-05T04:16:20.107Z,101701.94
2022-12-05T04:18:59.958Z,101691.84
2022-12-05T04:21:40.406Z,101695.84
2022-12-05T04:24:49.197Z,101702.53
2022-12-05T04:27:34.334Z,101692.09
2022-12-05T04:30:04.680Z,101707.22
2022-12-05T04:32:38.975Z,101706.22
2022-12-05T04:35:11.483Z,101710.28
2022-12-05T04:37:40.916Z,101698.78
2022-12-05T04:40:17.787Z,101705.34
2022-12-05T04:42:45.474Z,101694.50
2022-12-05T04:45:13.473Z,101701.78
2022-12-05T04:47:45.002Z,101714.75
2022-12-05T04:50:12.383Z,101703.94
2022-12-05T04:52:39.782Z,101706.44
2022-12-05T04:55:10.696Z,101707.06
2022-12-05T04:58:01.949Z,101716.44
2022-12-05T05:00:29.950Z,101709.44
2022-12-05T05:03:07.587Z,101704.16
2022-12-05T05:05:35.623Z,101708.75
2022-12-05T05:08:02.128Z,101699.66
2022-12-05T05:10:41.932Z,101701.50
2022-12-05T05:13:08.351Z,101704.81
2022-12-05T05:15:34.926Z,101702.88
2022-12-05T05:18:01.564Z,101708.66
2022-12-05T05:20:28.091Z,101705.72
2022-12-05T05:22:56.113Z,101710.34
2022-12-05T05:25:23.529Z,101710.34
2022-12-05T05:27:51.565Z,101701.41
2022-12-05T05:30:19.542Z,101712.31
2022-12-05T05:32:46.847Z,101696.00
2022-12-05T05:35:14.048Z,101708.06
2022-12-05T05:37:40.957Z,101704.50
2022-12-05T05:40:11.136Z,101711.72
2022-12-05T05:42:45.599Z,101702.16
2022-12-05T05:45:13.416Z,101704.75
2022-12-05T05:47:40.014Z,101702.75
2022-12-05T05:50:07.580Z,101706.09
2022-12-05T05:52:35.373Z,101708.34
2022-12-05T05:55:02.729Z,101701.06
2022-12-05T05:57:29.198Z,101708.22
2022-12-05T05:59:55.831Z,101713.72
2022-12-05T06:02:22.578Z,101705.28
2022-12-05T06:04:49.185Z,101707.84
2022-12-05T06:07:15.770Z,101702.47
2022-12-05T06:09:42.432Z,101699.19
2022-12-05T06:12:08.879Z,101702.38
2022-12-05T06:14:35.661Z,101695.63
2022-12-05T06:17:02.236Z,101691.59
2022-12-05T06:19:28.719Z,101697.03
2022-12-05T06:21:55.248Z,101701.97
2022-12-05T06:24:21.673Z,101713.59
2022-12-05T06:26:48.108Z,101704.47
2022-12-05T06:29:14.552Z,101709.78
2022-12-05T06:31:41.978Z,101708.72
2022-12-05T06:34:08.488Z,101715.53
2022-12-05T06:36:34.897Z,101715.00
2022-12-05T06:39:01.377Z,101712.63
2022-12-05T06:41:28.049Z,101714.19
2022-12-05T06:44:01.382Z,101718.19
2022-12-05T06:46:28.883Z,101716.22
2022-12-05T06:48:59.129Z,101716.22
2022-12-05T06:51:25.652Z,101716.28
2022-12-05T06:53:52.090Z,101716.66
2022-12-05T06:56:20.026Z,101724.72
2022-12-05T06:58:50.175Z,101711.84
2022-12-05T07:01:42.085Z,101714.38
2022-12-05T07:04:35.534Z,101709.94
2022-12-05T07:07:02.160Z,101710.31
2022-12-05T07:09:48.353Z,101715.88
2022-12-05T07:12:17.779Z,101713.31
2022-12-05T07:14:48.959Z,101709.59
2022-12-05T07:17:17.555Z,101713.78
2022-12-05T07:19:44.079Z,101713.72
2022-12-05T07:22:15.373Z,101706.88
2022-12-05T07:24:42.490Z,101714.41
2022-12-05T07:27:08.958Z,101712.19
2022-12-05T07:29:35.538Z,101716.59
2022-12-05T07:32:02.223Z,101712.38
2022-12-05T07:34:28.789Z,101716.66
2022-12-05T07:36:55.241Z,101713.59
2022-12-05T07:39:21.653Z,101711.28
2022-12-05T07:41:48.131Z,101720.44
2022-12-05T07:44:14.596Z,101705.09
2022-12-05T07:46:41.094Z,101705.19
2022-12-05T07:49:08.183Z,101707.34
2022-12-05T07:51:35.697Z,101713.72
2022-12-05T07:54:02.221Z,101707.28
2022-12-05T07:56:28.704Z,101717.13
2022-12-05T07:58:55.153Z,101709.09
2022-12-05T08:01:24.154Z,101710.66
2022-12-05T08:03:53.579Z,101713.69
2022-12-05T08:06:24.997Z,101709.59
2022-12-05T08:08:51.745Z,101716.84
2022-12-05T08:11:23.588Z,101712.06
2022-12-05T08:13:50.231Z,101718.97
2022-12-05T08:16:19.449Z,101717.56
2022-12-05T08:18:46.884Z,101714.69
2022-12-05T08:21:18.553Z,101717.56
2022-12-05T08:23:45.656Z,101713.69
2022-12-05T08:26:24.561Z,101716.19
2022-12-05T08:28:52.830Z,101722.16
2022-12-05T08:31:20.429Z,101710.91
2022-12-05T08:33:46.913Z,101716.31
2022-12-05T08:36:15.633Z,101712.84
2022-12-05T08:38:42.825Z,101721.03
2022-12-05T08:41:12.262Z,101729.50
2022-12-05T08:43:42.285Z,101727.22
2022-12-05T08:46:09.079Z,101728.06
2022-12-05T08:48:35.893Z,101734.81
2022-12-05T08:51:07.286Z,101724.16
2022-12-05T08:53:38.302Z,101729.50
2022-12-05T08:56:08.811Z,101728.75
2022-12-05T08:58:35.719Z,101732.69
2022-12-05T09:01:13.806Z,101732.44
2022-12-05T09:03:47.328Z,101734.78
2022-12-05T09:06:20.171Z,101731.72
2022-12-05T09:08:46.756Z,101738.28
2022-12-05T09:11:18.681Z,101737.56
2022-12-05T09:13:46.470Z,101743.84
2022-12-05T09:16:16.377Z,101737.38
2022-12-05T09:18:44.061Z,101737.53
2022-12-05T09:21:13.311Z,101737.44
2022-12-05T09:23:41.583Z,101732.56
2022-12-05T09:26:11.915Z,101733.09
2022-12-05T09:28:38.517Z,101733.75
2022-12-05T09:31:07.978Z,101732.81
2022-12-05T09:33:36.709Z,101738.28
2022-12-05T09:36:08.574Z,101743.75
2022-12-05T09:38:35.130Z,101740.03
2022-12-05T09:41:21.762Z,101734.94
2022-12-05T09:44:00.762Z,101736.53
2022-12-05T09:46:37.591Z,101734.31
2022-12-05T09:49:05.049Z,101732.00
2022-12-05T09:51:32.269Z,101739.19
2022-12-05T09:53:58.781Z,101743.38
2022-12-05T09:56:30.482Z,101746.44
2022-12-05T09:58:58.351Z,101738.16
2022-12-05T10:01:49.758Z,101748.75
2022-12-05T10:05:00.907Z,101747.88
2022-12-05T10:07:36.203Z,101745.31
2022-12-05T10:10:27.328Z,101744.16
2022-12-05T10:12:53.814Z,101741.56
2022-12-05T10:15:26.562Z,101738.19
2022-12-05T10:17:57.867Z,101741.25
2022-12-05T10:20:49.014Z,101739.41
2022-12-05T10:23:48.871Z,101745.69
2022-12-05T10:26:09.743Z,101738.06
2022-12-05T10:28:40.508Z,101741.00
2022-12-05T10:31:11.709Z,101737.66
2022-12-05T10:33:42.015Z,101742.38
2022-12-05T10:36:13.531Z,101732.19
2022-12-05T10:38:41.336Z,101737.91
2022-12-05T10:41:09.117Z,101735.69
2022-12-05T10:43:37.893Z,101734.25
2022-12-05T10:46:07.274Z,101733.03
2022-12-05T10:48:37.217Z,101731.56
2022-12-05T10:51:04.625Z,101727.56
2022-12-05T10:53:52.834Z,101730.44
2022-12-05T10:56:38.986Z,101732.69
2022-12-05T10:59:07.494Z,101731.47
2022-12-05T11:01:37.332Z,101723.03
2022-12-05T11:04:17.321Z,101725.91
2022-12-05T11:06:51.149Z,101729.63
2022-12-05T11:09:23.919Z,101723.56
2022-12-05T11:12:04.448Z,101731.47
2022-12-05T11:14:33.341Z,101714.75
2022-12-05T11:17:01.600Z,101715.72
2022-12-05T11:19:35.033Z,101714.31
2022-12-05T11:22:02.011Z,101712.19
2022-12-05T11:24:30.005Z,101720.50
2022-12-05T11:26:58.330Z,101716.41
2022-12-05T11:29:34.550Z,101721.78
2022-12-05T11:32:02.324Z,101715.41
2022-12-05T11:34:33.335Z,101712.47
2022-12-05T11:37:15.190Z,101709.06
2022-12-05T11:39:41.917Z,101711.53
2022-12-05T11:42:33.215Z,101705.91
2022-12-05T11:45:21.378Z,101710.75
2022-12-05T11:48:06.658Z,101707.41
2022-12-05T11:50:40.976Z,101707.69
2022-12-05T11:53:19.584Z,101705.72
2022-12-05T11:55:54.167Z,101706.56
2022-12-05T11:58:40.310Z,101698.66
2022-12-05T12:01:21.206Z,101704.56
2022-12-05T12:03:59.817Z,101704.22
2022-12-05T12:06:40.439Z,101709.59
2022-12-05T12:09:20.965Z,101702.53
2022-12-05T12:11:59.019Z,101701.47
2022-12-05T12:14:25.469Z,101699.19
2022-12-05T12:17:08.825Z,101697.09
2022-12-05T12:19:58.442Z,101700.88
2022-12-05T12:22:39.322Z,101699.22
2022-12-05T12:25:05.996Z,101692.38
2022-12-05T12:27:50.806Z,101692.31
2022-12-05T12:30:26.125Z,101694.91
2022-12-05T12:33:01.004Z,101686.16
2022-12-05T12:35:29.522Z,101689.13
2022-12-05T12:38:24.474Z,101690.09
2022-12-05T12:40:58.287Z,101687.97
2022-12-05T12:43:56.803Z,101681.91
2022-12-05T12:46:46.361Z,101685.31
2022-12-05T12:49:18.784Z,101687.28
2022-12-05T12:51:51.764Z,101684.53
2022-12-05T12:54:29.304Z,101689.84
2022-12-05T12:57:29.515Z,101687.41
2022-12-05T13:00:22.316Z,101689.78
2022-12-05T13:03:00.736Z,101691.06
2022-12-05T13:05:34.242Z,101693.56
2022-12-05T13:08:10.417Z,101691.63
2022-12-05T13:10:43.689Z,101676.63
2022-12-05T13:13:14.248Z,101688.38
2022-12-05T13:15:47.890Z,101691.03
2022-12-05T13:18:18.510Z,101677.69
2022-12-05T13:20:48.443Z,101678.97
2022-12-05T13:23:16.869Z,101683.44
2022-12-05T13:25:45.123Z,101677.59
2022-12-05T13:28:32.393Z,101680.53
2022-12-05T13:31:02.826Z,101678.78
2022-12-05T13:33:32.994Z,101679.63
2022-12-05T13:36:32.709Z,101678.81
2022-12-05T13:39:20.235Z,101668.97
2022-12-05T13:42:07.939Z,101677.63
2022-12-05T13:44:40.754Z,101669.53
2022-12-05T13:47:21.157Z,101682.06
2022-12-05T13:49:54.033Z,101672.25
2022-12-05T13:52:26.231Z,101679.56
2022-12-05T13:55:01.264Z,101679.19
2022-12-05T13:57:40.040Z,101672.59
2022-12-05T14:00:09.243Z,101675.84
2022-12-05T14:02:42.213Z,101681.13
2022-12-05T14:05:35.350Z,101686.81
2022-12-05T14:08:42.049Z,101692.16
2022-12-05T14:11:11.066Z,101685.16
2022-12-05T14:13:43.497Z,101690.53
2022-12-05T14:16:25.330Z,101689.69
2022-12-05T14:19:12.311Z,101687.50
2022-12-05T14:21:49.320Z,101688.06
2022-12-05T14:24:28.660Z,101687.28
2022-12-05T14:27:40.865Z,101686.84
2022-12-05T14:30:10.778Z,101683.53
2022-12-05T14:32:39.027Z,101691.88
2022-12-05T14:35:32.167Z,101690.41
2022-12-05T14:38:01.814Z,101686.56
2022-12-05T14:40:31.384Z,101690.78
2022-12-05T14:43:00.889Z,101701.28
2022-12-05T14:45:35.545Z,101689.75
2022-12-05T14:48:07.581Z,101698.63
2022-12-05T14:50:34.811Z,101692.25
2022-12-05T14:53:32.466Z,101695.69
2022-12-05T14:56:17.721Z,101694.44
2022-12-05T14:58:45.501Z,101703.31
2022-12-05T15:01:20.252Z,101705.00
2022-12-05T15:04:00.482Z,101695.84
2022-12-05T15:06:27.164Z,101687.56
2022-12-05T15:09:14.613Z,101698.03
2022-12-05T15:11:43.244Z,101704.94
2022-12-05T15:14:10.122Z,101699.03
2022-12-05T15:16:38.346Z,101695.13
2022-12-05T15:19:08.231Z,101704.88
2022-12-05T15:21:49.288Z,101692.97
2022-12-05T15:24:17.705Z,101697.91
2022-12-05T15:27:06.258Z,101693.28
2022-12-05T15:29:33.825Z,101699.03
2022-12-05T15:32:03.099Z,101697.00
2022-12-05T15:34:45.540Z,101707.28
2022-12-05T15:37:29.212Z,101707.41
2022-12-05T15:39:56.917Z,101710.47
2022-12-05T15:42:44.737Z,101711.00
2022-12-05T15:45:17.603Z,101718.88
2022-12-05T15:47:48.841Z,101715.22
2022-12-05T15:50:33.042Z,101720.13
2022-12-05T15:53:30.399Z,101712.91
2022-12-05T15:56:07.406Z,101717.06
2022-12-05T15:58:39.183Z,101721.50
2022-12-05T16:01:13.488Z,101714.34
2022-12-05T16:03:41.742Z,101726.19
2022-12-05T16:06:18.936Z,101721.16
2022-12-05T16:08:46.876Z,101718.28
2022-12-05T16:11:14.327Z,101716.19
2022-12-05T16:13:48.587Z,101713.97
2022-12-05T16:16:28.037Z,101713.00
2022-12-05T16:18:57.507Z,101716.31
2022-12-05T16:21:39.380Z,101714.03
2022-12-05T16:24:06.258Z,101724.56
2022-12-05T16:26:37.829Z,101718.09
2022-12-05T16:29:04.647Z,101716.56
2022-12-05T16:31:32.470Z,101719.47
2022-12-05T16:34:04.551Z,101721.31
2022-12-05T16:36:31.291Z,101726.44
2022-12-05T16:39:05.434Z,101721.84
2022-12-05T16:41:36.622Z,101729.66
2022-12-05T16:44:09.415Z,101721.72
2022-12-05T16:46:42.932Z,101727.41
2022-12-05T16:49:30.799Z,101725.03
2022-12-05T16:52:01.865Z,101718.47
2022-12-05T16:54:28.813Z,101723.03
2022-12-05T16:56:55.224Z,101719.44
2022-12-05T16:59:25.189Z,101723.81
2022-12-05T17:01:51.690Z,101720.63
2022-12-05T17:04:18.289Z,101719.34
2022-12-05T17:06:44.852Z,101716.81
2022-12-05T17:09:11.565Z,101715.28
2022-12-05T17:11:39.945Z,101722.41
2022-12-05T17:14:07.373Z,101723.56
2022-12-05T17:16:33.896Z,101725.19
2022-12-05T17:19:00.530Z,101731.75
2022-12-05T17:21:30.576Z,101728.78
2022-12-05T17:23:57.109Z,101730.22
2022-12-05T17:26:23.577Z,101725.47
2022-12-05T17:28:50.518Z,101728.50
2022-12-05T17:31:19.013Z,101739.28
2022-12-05T17:33:46.084Z,101728.50
2022-12-05T17:36:13.224Z,101741.91
2022-12-05T17:38:39.776Z,101737.19
2022-12-05T17:41:07.332Z,101738.72
2022-12-05T17:43:34.321Z,101734.69
2022-12-05T17:46:02.482Z,101740.38
2022-12-05T17:48:28.999Z,101733.47
2022-12-05T17:50:57.735Z,101736.56
2022-12-05T17:53:24.325Z,101739.34
2022-12-05T17:55:51.397Z,101735.78
2022-12-05T17:58:18.287Z,101735.59
2022-12-05T18:00:45.934Z,101730.63
2022-12-05T18:03:14.821Z,101734.19
2022-12-05T18:05:41.576Z,101731.34
2022-12-05T18:08:09.049Z,101729.09
2022-12-05T18:10:35.789Z,101736.69
2022-12-05T18:13:02.340Z,101738.16
2022-12-05T18:15:29.033Z,101739.63
2022-12-05T18:17:55.632Z,101753.75
2022-12-05T18:20:22.099Z,101757.25
2022-12-05T18:22:48.710Z,101763.94
2022-12-05T18:25:15.180Z,101759.59
2022-12-05T18:27:41.623Z,101758.75
2022-12-05T18:30:08.618Z,101761.06
2022-12-05T18:32:35.132Z,101758.88
2022-12-05T18:35:02.135Z,101755.56
2022-12-05T18:37:29.301Z,101758.19
2022-12-05T18:39:56.494Z,101759.59
2022-12-05T18:42:23.546Z,101764.41
2022-12-05T18:44:50.181Z,101768.25
2022-12-05T18:47:16.831Z,101768.25
2022-12-05T18:49:43.374Z,101772.69
2022-12-05T18:52:10.267Z,101763.19
2022-12-05T18:54:36.807Z,101774.47
2022-12-05T18:57:04.285Z,101766.56
2022-12-05T18:59:30.787Z,101768.94
2022-12-05T19:02:00.277Z,101766.06
2022-12-05T19:04:27.623Z,101753.97
2022-12-05T19:06:55.859Z,101763.66
2022-12-05T19:09:24.956Z,101762.38
2022-12-05T19:11:55.032Z,101763.63
2022-12-05T19:14:21.994Z,101758.34
2022-12-05T19:16:53.675Z,101758.53
2022-12-05T19:19:24.598Z,101760.06
2022-12-05T19:21:51.061Z,101751.50
2022-12-05T19:24:18.370Z,101757.53
2022-12-05T19:26:45.228Z,101760.53
2022-12-05T19:29:13.010Z,101755.25
2022-12-05T19:31:39.632Z,101762.09
2022-12-05T19:34:07.628Z,101758.34
2022-12-05T19:36:37.224Z,101763.34
2022-12-05T19:39:13.986Z,101763.78
2022-12-05T19:41:40.498Z,101767.53
2022-12-05T19:44:06.969Z,101758.94
2022-12-05T19:46:34.087Z,101758.03
2022-12-05T19:49:03.259Z,101760.81
2022-12-05T19:51:30.914Z,101759.59
2022-12-05T19:53:59.766Z,101763.81
2022-12-05T19:56:27.980Z,101759.44
2022-12-05T19:58:56.088Z,101766.88
2022-12-05T20:01:23.833Z,101767.22
2022-12-05T20:03:52.913Z,101762.38
2022-12-05T20:06:20.666Z,101763.53
2022-12-05T20:08:48.284Z,101767.41
2022-12-05T20:11:17.312Z,101763.47
2022-12-05T20:13:46.927Z,101762.19
2022-12-05T20:16:15.229Z,101769.78
2022-12-05T20:18:42.144Z,101758.31
2022-12-05T20:21:11.113Z,101762.34
2022-12-05T20:23:37.709Z,101759.47
2022-12-05T20:26:15.627Z,101753.91
2022-12-05T20:28:42.680Z,101758.84
2022-12-05T20:31:15.201Z,101753.06
2022-12-05T20:33:41.994Z,101757.03
2022-12-05T20:36:19.891Z,101748.44
2022-12-05T20:38:46.840Z,101744.72
2022-12-05T20:41:18.481Z,101747.75
2022-12-05T20:43:46.879Z,101746.94
2022-12-05T20:46:18.728Z,101745.66
2022-12-05T20:48:46.047Z,101750.69
2022-12-05T20:51:14.833Z,101748.25
2022-12-05T20:53:42.688Z,101749.00
2022-12-05T20:56:11.798Z,101741.47
2022-12-05T20:58:38.883Z,101742.75
2022-12-05T21:01:07.568Z,101736.19
2022-12-05T21:03:34.624Z,101734.94
2022-12-05T21:06:09.912Z,101738.69
2022-12-05T21:08:36.784Z,101731.44
2022-12-05T21:11:03.546Z,101726.94
2022-12-05T21:13:30.454Z,101726.28
2022-12-05T21:15:57.085Z,101728.19
2022-12-05T21:18:23.713Z,101727.88
2022-12-05T21:20:58.477Z,101726.28
2022-12-05T21:23:25.399Z,101727.06
2022-12-05T21:25:51.960Z,101726.34
2022-12-05T21:28:18.415Z,101724.09
2022-12-05T21:30:45.102Z,101728.66
2022-12-05T21:33:11.569Z,101728.84
2022-12-05T21:35:38.154Z,101731.09
2022-12-05T21:38:04.750Z,101722.78
2022-12-05T21:40:31.182Z,101727.06
2022-12-05T21:42:57.586Z,101732.59
2022-12-05T21:45:24.067Z,101727.50
2022-12-05T21:47:51.203Z,101723.78
2022-12-05T21:50:17.703Z,101721.81
2022-12-05T21:52:44.137Z,101719.19
2022-12-05T21:55:10.783Z,101725.56
2022-12-05T21:57:40.279Z,101719.97
2022-12-05T22:00:09.196Z,101724.34
2022-12-05T22:02:35.969Z,101717.63
2022-12-05T22:05:02.622Z,101716.09
2022-12-05T22:07:29.172Z,101720.97
2022-12-05T22:09:55.723Z,101713.13
2022-12-05T22:12:22.483Z,101720.69
2022-12-05T22:14:48.941Z,101716.09
2022-12-05T22:17:15.519Z,101716.28
2022-12-05T22:19:41.998Z,101719.88
2022-12-05T22:22:08.466Z,101719.19
2022-12-05T22:24:34.884Z,101711.59
2022-12-05T22:27:01.484Z,101704.22
2022-12-05T22:29:27.929Z,101706.72
2022-12-05T22:31:54.417Z,101709.38
2022-12-05T22:34:21.087Z,101695.00
2022-12-05T22:36:49.324Z,101710.63
2022-12-05T22:39:15.784Z,101699.69
2022-12-05T22:41:42.189Z,101703.78
2022-12-05T22:44:08.993Z,101694.25
2022-12-05T22:46:35.570Z,101692.97
2022-12-05T22:49:03.501Z,101697.03
2022-12-05T22:51:30.204Z,101696.38
2022-12-05T22:53:57.013Z,101696.09
2022-12-05T22:56:25.847Z,101687.91
2022-12-05T22:58:57.676Z,101690.75
2022-12-05T23:01:34.437Z,101692.22
2022-12-05T23:04:03.750Z,101687.06
2022-12-05T23:06:32.044Z,101693.34
2022-12-05T23:08:59.368Z,101679.50
2022-12-05T23:11:26.651Z,101682.31
2022-12-05T23:14:01.495Z,101684.63
2022-12-05T23:16:30.942Z,101681.13
2022-12-05T23:18:59.533Z,101673.31
2022-12-05T23:21:32.031Z,101680.66
2022-12-05T23:24:00.637Z,101670.78
2022-12-05T23:26:32.880Z,101673.47
2022-12-05T23:28:59.378Z,101675.63
2022-12-05T23:31:26.064Z,101671.03
2022-12-05T23:33:52.798Z,101672.78
2022-12-05T23:36:19.808Z,101677.09
2022-12-05T23:38:46.275Z,101665.34
2022-12-05T23:41:13.800Z,101670.78
2022-12-05T23:43:40.519Z,101660.56
2022-12-05T23:46:07.352Z,101655.88
2022-12-05T23:48:34.266Z,101661.25
2022-12-05T23:51:07.937Z,101660.56
2022-12-05T23:53:35.937Z,101659.50
2022-12-05T23:56:11.503Z,101662.25
2022-12-05T23:58:38.504Z,101662.25
